createdAt,value
2018-05-27T00:02:24.760Z,6.07
2018-05-27T00:04:52.188Z,5.80
2018-05-27T00:07:20.398Z,5.93
2018-05-27T00:09:47.841Z,5.70
2018-05-27T00:12:15.290Z,6.77
2018-05-27T00:14:42.724Z,5.93
2018-05-27T00:17:10.161Z,5.47
2018-05-27T00:19:37.610Z,5.30
2018-05-27T00:22:05.038Z,5.60
2018-05-27T00:24:32.489Z,6.03
2018-05-27T00:26:59.922Z,6.07
2018-05-27T00:29:28.134Z,6.10
2018-05-27T00:31:55.574Z,5.57
2018-05-27T00:34:23.023Z,6.20
2018-05-27T00:36:50.462Z,6.20
2018-05-27T00:39:18.675Z,6.10
2018-05-27T00:41:46.115Z,5.87
2018-05-27T00:44:13.565Z,6.00
2018-05-27T00:46:41.759Z,6.10
2018-05-27T00:49:09.211Z,6.10
2018-05-27T00:51:36.653Z,6.03
2018-05-27T00:54:04.855Z,6.80
2018-05-27T00:56:32.292Z,6.63
2018-05-27T00:58:59.744Z,6.23
2018-05-27T01:01:27.943Z,6.00
2018-05-27T01:03:55.383Z,5.80
2018-05-27T01:06:22.820Z,6.97
2018-05-27T01:11:24.867Z,5.97
2018-05-27T01:13:52.309Z,6.37
2018-05-27T01:16:19.751Z,6.57
2018-05-27T01:18:47.210Z,6.43
2018-05-27T01:21:14.644Z,6.10
2018-05-27T01:23:42.083Z,6.33
2018-05-27T01:26:10.296Z,5.83
2018-05-27T01:28:37.728Z,6.10
2018-05-27T01:31:05.936Z,6.90
2018-05-27T01:33:33.366Z,6.10
2018-05-27T01:36:00.817Z,6.53
2018-05-27T01:38:28.251Z,6.53
2018-05-27T01:40:55.700Z,6.40
2018-05-27T01:43:23.125Z,6.40
2018-05-27T01:45:50.578Z,6.57
2018-05-27T01:48:18.012Z,6.90
2018-05-27T01:50:45.453Z,6.13
2018-05-27T01:53:13.661Z,5.93
2018-05-27T01:55:41.112Z,6.60
2018-05-27T01:58:08.551Z,5.47
2018-05-27T02:00:35.990Z,6.90
2018-05-27T02:03:04.199Z,6.47
2018-05-27T02:05:31.647Z,6.87
2018-05-27T02:07:59.078Z,6.80
2018-05-27T02:10:27.291Z,7.27
2018-05-27T02:12:54.726Z,6.83
2018-05-27T02:15:22.169Z,7.20
2018-05-27T02:17:50.377Z,6.87
2018-05-27T02:20:17.815Z,7.20
2018-05-27T02:22:46.011Z,6.53
2018-05-27T02:25:13.470Z,6.87
2018-05-27T02:27:40.906Z,7.17
2018-05-27T02:30:08.341Z,6.97
2018-05-27T02:32:35.782Z,6.70
2018-05-27T02:35:03.215Z,6.90
2018-05-27T02:37:30.658Z,6.23
2018-05-27T02:39:58.098Z,6.93
2018-05-27T02:42:25.555Z,6.63
2018-05-27T02:44:53.003Z,7.20
2018-05-27T02:47:21.203Z,6.60
2018-05-27T02:49:48.643Z,7.27
2018-05-27T02:52:16.082Z,7.43
2018-05-27T02:54:44.286Z,7.23
2018-05-27T02:57:11.730Z,7.80
2018-05-27T02:59:39.162Z,7.33
2018-05-27T03:02:07.372Z,7.00
2018-05-27T03:04:34.807Z,8.10
2018-05-27T03:07:03.024Z,7.43
2018-05-27T03:09:30.455Z,7.60
2018-05-27T03:11:57.903Z,7.60
2018-05-27T03:14:25.349Z,7.43
2018-05-27T03:16:53.548Z,7.53
2018-05-27T03:19:21.812Z,7.40
2018-05-27T03:21:49.280Z,7.30
2018-05-27T03:24:16.704Z,7.27
2018-05-27T03:26:44.915Z,7.60
2018-05-27T03:29:12.356Z,7.73
2018-05-27T03:31:39.803Z,8.73
2018-05-27T03:34:08.003Z,7.73
2018-05-27T03:36:35.450Z,7.40
2018-05-27T03:39:02.893Z,7.70
2018-05-27T03:41:31.095Z,8.67
2018-05-27T03:43:58.552Z,8.43
2018-05-27T03:46:25.990Z,9.17
2018-05-27T03:48:53.438Z,8.80
2018-05-27T03:51:21.638Z,8.70
2018-05-27T03:53:49.083Z,8.30
2018-05-27T03:56:16.515Z,8.40
2018-05-27T03:58:44.727Z,8.07
2018-05-27T04:01:12.163Z,7.60
2018-05-27T04:03:40.381Z,8.40
2018-05-27T04:06:19.627Z,8.83
2018-05-27T04:08:47.087Z,8.70
2018-05-27T04:11:14.529Z,8.00
2018-05-27T04:13:41.970Z,8.43
2018-05-27T04:16:09.418Z,8.50
2018-05-27T04:18:36.851Z,8.50
2018-05-27T04:21:05.050Z,7.70
2018-05-27T04:23:32.495Z,8.70
2018-05-27T04:25:59.938Z,9.27
2018-05-27T04:28:28.206Z,8.40
2018-05-27T04:30:55.590Z,8.33
2018-05-27T04:33:23.044Z,8.03
2018-05-27T04:35:51.235Z,8.50
2018-05-27T04:38:18.686Z,9.20
2018-05-27T04:40:46.130Z,7.70
2018-05-27T04:43:14.340Z,7.60
2018-05-27T04:45:41.774Z,8.40
2018-05-27T04:48:09.222Z,8.03
2018-05-27T04:50:36.670Z,8.03
2018-05-27T04:53:04.875Z,8.37
2018-05-27T04:55:32.325Z,8.70
2018-05-27T04:57:59.768Z,8.50
2018-05-27T05:00:27.206Z,8.97
2018-05-27T05:02:55.432Z,8.00
2018-05-27T05:05:22.865Z,9.10
2018-05-27T05:07:50.307Z,8.70
2018-05-27T05:10:18.513Z,8.37
2018-05-27T05:12:45.956Z,9.50
2018-05-27T05:15:13.399Z,8.80
2018-05-27T05:17:40.838Z,9.03
2018-05-27T05:20:09.054Z,9.00
2018-05-27T05:22:36.490Z,8.40
2018-05-27T05:25:03.940Z,9.30
2018-05-27T05:27:32.142Z,9.67
2018-05-27T05:29:59.594Z,8.63
2018-05-27T05:32:27.033Z,8.87
2018-05-27T05:34:55.250Z,8.50
2018-05-27T05:37:22.694Z,8.73
2018-05-27T05:39:50.138Z,8.77
2018-05-27T05:42:17.576Z,8.80
2018-05-27T05:44:49.550Z,8.60
2018-05-27T05:47:17.742Z,8.20
2018-05-27T05:49:45.195Z,8.80
2018-05-27T05:52:12.630Z,8.93
2018-05-27T05:54:40.071Z,8.67
2018-05-27T05:57:08.274Z,9.50
2018-05-27T05:59:35.726Z,9.40
2018-05-27T06:02:03.174Z,11.10
2018-05-27T06:04:31.391Z,9.50
2018-05-27T06:06:58.831Z,8.93
2018-05-27T06:09:26.287Z,9.00
2018-05-27T06:11:53.735Z,9.03
2018-05-27T06:14:21.183Z,10.40
2018-05-27T06:16:48.618Z,9.10
2018-05-27T06:19:16.848Z,8.33
2018-05-27T06:21:44.283Z,8.30
2018-05-27T06:24:11.715Z,9.00
2018-05-27T06:26:39.931Z,9.10
2018-05-27T06:29:07.362Z,8.63
2018-05-27T06:31:34.824Z,8.70
2018-05-27T06:34:03.020Z,9.47
2018-05-27T06:36:30.467Z,9.70
2018-05-27T06:38:57.905Z,8.60
2018-05-27T06:41:25.352Z,9.53
2018-05-27T06:43:53.558Z,8.10
2018-05-27T06:46:21.012Z,9.23
2018-05-27T06:48:48.448Z,8.73
2018-05-27T06:51:16.666Z,8.60
2018-05-27T06:53:44.104Z,8.40
2018-05-27T06:56:11.546Z,8.23
2018-05-27T06:58:38.978Z,8.80
2018-05-27T07:01:07.194Z,9.23
2018-05-27T07:03:34.637Z,9.40
2018-05-27T07:06:02.079Z,8.40
2018-05-27T07:08:30.281Z,8.23
2018-05-27T07:10:57.727Z,8.97
2018-05-27T07:13:25.169Z,8.70
2018-05-27T07:15:53.376Z,8.13
2018-05-27T07:18:20.814Z,9.20
2018-05-27T07:20:48.259Z,7.70
2018-05-27T07:23:16.463Z,7.57
2018-05-27T07:25:43.910Z,8.23
2018-05-27T07:28:11.404Z,8.23
2018-05-27T07:30:39.570Z,9.30
2018-05-27T07:33:07.011Z,8.00
2018-05-27T07:35:34.450Z,9.50
2018-05-27T07:38:01.903Z,8.73
2018-05-27T07:40:29.339Z,7.77
2018-05-27T07:42:57.558Z,7.93
2018-05-27T07:45:25.000Z,8.87
2018-05-27T07:47:52.448Z,7.93
2018-05-27T07:50:19.878Z,8.40
2018-05-27T07:52:48.096Z,9.07
2018-05-27T07:55:15.534Z,8.00
2018-05-27T07:57:42.982Z,8.70
2018-05-27T08:00:11.186Z,8.87
2018-05-27T08:02:38.646Z,8.20
2018-05-27T08:05:06.082Z,7.50
2018-05-27T08:07:34.291Z,7.80
2018-05-27T08:10:01.735Z,8.47
2018-05-27T08:12:29.184Z,8.03
2018-05-27T08:14:56.612Z,8.33
2018-05-27T08:17:24.824Z,8.20
2018-05-27T08:19:52.380Z,8.00
2018-05-27T08:22:20.480Z,8.27
2018-05-27T08:24:47.910Z,8.20
2018-05-27T08:27:15.364Z,7.60
2018-05-27T08:29:42.800Z,8.70
2018-05-27T08:32:11.009Z,7.77
2018-05-27T08:34:38.440Z,7.70
2018-05-27T08:37:05.885Z,9.43
2018-05-27T08:39:34.099Z,8.50
2018-05-27T08:42:01.546Z,9.20
2018-05-27T08:44:28.999Z,9.07
2018-05-27T08:46:56.432Z,8.30
2018-05-27T08:49:24.646Z,8.30
2018-05-27T08:51:52.078Z,8.30
2018-05-27T08:54:19.527Z,7.90
2018-05-27T08:56:46.967Z,8.93
2018-05-27T08:59:15.187Z,9.13
2018-05-27T09:01:42.625Z,9.10
2018-05-27T09:04:10.083Z,8.10
2018-05-27T09:06:37.535Z,8.60
2018-05-27T09:09:05.738Z,8.13
2018-05-27T09:11:33.179Z,8.17
2018-05-27T09:14:00.618Z,7.73
2018-05-27T09:16:28.046Z,6.47
2018-05-27T09:18:55.491Z,7.10
2018-05-27T09:21:22.937Z,7.67
2018-05-27T09:23:50.379Z,7.50
2018-05-27T09:26:17.823Z,7.93
2018-05-27T09:28:45.272Z,7.00
2018-05-27T09:31:12.702Z,7.13
2018-05-27T09:33:40.924Z,7.40
2018-05-27T09:36:08.362Z,7.20
2018-05-27T09:38:35.807Z,7.80
2018-05-27T09:41:03.249Z,7.20
2018-05-27T09:43:31.451Z,6.80
2018-05-27T09:45:58.899Z,6.97
2018-05-27T09:48:26.329Z,6.93
2018-05-27T09:50:53.780Z,7.70
2018-05-27T09:53:21.290Z,6.57
2018-05-27T09:55:48.735Z,7.20
2018-05-27T09:58:16.180Z,6.83
2018-05-27T10:00:44.399Z,6.80
2018-05-27T10:03:11.819Z,7.10
2018-05-27T10:05:39.271Z,6.80
2018-05-27T10:08:06.710Z,7.30
2018-05-27T10:10:34.931Z,6.63
2018-05-27T10:13:02.375Z,7.03
2018-05-27T10:15:29.817Z,6.53
2018-05-27T10:17:57.263Z,6.67
2018-05-27T10:20:25.475Z,6.70
2018-05-27T10:22:52.911Z,6.70
2018-05-27T10:25:20.350Z,6.73
2018-05-27T10:27:48.561Z,6.50
2018-05-27T10:30:16.016Z,6.20
2018-05-27T10:32:43.460Z,6.93
2018-05-27T10:35:11.664Z,6.53
2018-05-27T10:37:39.107Z,7.00
2018-05-27T10:40:06.554Z,5.87
2018-05-27T10:42:33.994Z,6.00
2018-05-27T10:45:02.210Z,6.50
2018-05-27T10:47:29.654Z,6.43
2018-05-27T10:49:57.082Z,5.00
2018-05-27T10:52:25.300Z,5.60
2018-05-27T10:54:52.734Z,5.07
2018-05-27T10:57:20.190Z,5.10
2018-05-27T10:59:47.626Z,5.00
2018-05-27T11:02:15.841Z,5.27
2018-05-27T11:04:43.267Z,5.40
2018-05-27T11:07:10.710Z,5.50
2018-05-27T11:09:38.916Z,5.17
2018-05-27T11:12:06.372Z,6.20
2018-05-27T11:14:33.803Z,5.10
2018-05-27T11:17:02.007Z,6.00
2018-05-27T11:19:29.442Z,5.43
2018-05-27T11:21:58.331Z,5.40
2018-05-27T11:24:26.531Z,5.40
2018-05-27T11:26:53.977Z,5.07
2018-05-27T11:29:21.411Z,4.90
2018-05-27T11:31:49.621Z,5.57
2018-05-27T11:34:17.050Z,4.87
2018-05-27T11:36:45.263Z,5.53
2018-05-27T11:39:12.700Z,5.03
2018-05-27T11:41:40.145Z,5.00
2018-05-27T11:44:08.345Z,5.10
2018-05-27T11:46:35.781Z,5.20
2018-05-27T11:49:03.218Z,5.37
2018-05-27T11:51:31.442Z,5.77
2018-05-27T11:53:58.863Z,4.77
2018-05-27T11:56:26.310Z,4.90
2018-05-27T11:58:54.518Z,5.10
2018-05-27T12:01:21.960Z,4.30
2018-05-27T12:03:49.416Z,4.50
2018-05-27T12:06:16.847Z,5.17
2018-05-27T12:08:45.069Z,5.20
2018-05-27T12:11:12.502Z,4.97
2018-05-27T12:13:39.945Z,4.60
2018-05-27T12:16:08.152Z,4.50
2018-05-27T12:18:35.593Z,3.70
2018-05-27T12:21:03.030Z,4.37
2018-05-27T12:23:31.242Z,4.07
2018-05-27T12:25:58.678Z,4.10
2018-05-27T12:28:26.123Z,3.90
2018-05-27T12:30:54.322Z,4.23
2018-05-27T12:33:21.773Z,3.97
2018-05-27T12:35:49.206Z,4.47
2018-05-27T12:38:17.427Z,4.20
2018-05-27T12:40:44.859Z,4.50
2018-05-27T12:43:12.306Z,4.90
2018-05-27T12:45:40.518Z,4.70
2018-05-27T12:48:07.963Z,4.93
2018-05-27T12:50:35.408Z,5.53
2018-05-27T12:53:03.610Z,5.73
2018-05-27T12:55:31.047Z,5.77
2018-05-27T12:57:58.491Z,5.63
2018-05-27T13:00:25.937Z,6.40
2018-05-27T13:02:54.151Z,7.07
2018-05-27T13:05:21.589Z,5.90
2018-05-27T13:07:49.028Z,6.23
2018-05-27T13:10:17.226Z,5.77
2018-05-27T13:12:44.684Z,6.33
2018-05-27T13:15:12.115Z,5.90
2018-05-27T13:17:40.323Z,5.83
2018-05-27T13:20:07.761Z,6.10
2018-05-27T13:22:35.202Z,5.90
2018-05-27T13:25:03.411Z,6.33
2018-05-27T13:27:30.842Z,5.83
2018-05-27T13:29:59.069Z,6.37
2018-05-27T13:32:26.491Z,6.53
2018-05-27T13:34:53.935Z,5.90
2018-05-27T13:37:21.367Z,5.93
2018-05-27T13:39:48.815Z,6.47
2018-05-27T13:42:16.249Z,6.40
2018-05-27T13:44:43.693Z,6.13
2018-05-27T13:47:11.129Z,5.87
2018-05-27T13:49:38.578Z,5.73
2018-05-27T13:52:06.014Z,6.10
2018-05-27T13:54:34.230Z,6.57
2018-05-27T13:57:01.674Z,6.20
2018-05-27T13:59:29.122Z,6.53
2018-05-27T14:01:57.322Z,6.87
2018-05-27T14:04:24.774Z,6.40
2018-05-27T14:06:52.256Z,6.20
2018-05-27T14:09:19.679Z,6.13
2018-05-27T14:11:47.115Z,6.17
2018-05-27T14:14:15.314Z,5.30
2018-05-27T14:16:42.765Z,5.90
2018-05-27T14:19:10.193Z,5.57
2018-05-27T14:21:38.415Z,6.20
2018-05-27T14:24:05.859Z,5.67
2018-05-27T14:26:33.302Z,5.30
2018-05-27T14:29:00.745Z,6.23
2018-05-27T14:31:28.955Z,5.90
2018-05-27T14:33:56.387Z,5.83
2018-05-27T14:36:24.601Z,6.10
2018-05-27T14:38:52.050Z,5.80
2018-05-27T14:41:19.479Z,5.37
2018-05-27T14:43:47.676Z,6.10
2018-05-27T14:46:15.128Z,6.53
2018-05-27T14:48:42.562Z,5.50
2018-05-27T14:51:10.782Z,5.50
2018-05-27T14:53:38.222Z,6.20
2018-05-27T14:56:05.679Z,5.73
2018-05-27T14:58:33.103Z,6.40
2018-05-27T15:01:01.315Z,5.37
2018-05-27T15:03:28.747Z,5.60
2018-05-27T15:05:56.199Z,6.17
2018-05-27T15:08:24.399Z,5.80
2018-05-27T15:10:51.841Z,5.70
2018-05-27T15:13:19.275Z,5.90
2018-05-27T15:15:47.495Z,6.17
2018-05-27T15:18:14.928Z,6.07
2018-05-27T15:20:42.356Z,5.80
2018-05-27T15:23:09.806Z,6.90
2018-05-27T15:25:37.245Z,5.40
2018-05-27T15:28:04.697Z,6.17
2018-05-27T15:30:32.140Z,6.30
2018-05-27T15:32:59.578Z,6.30
2018-05-27T15:35:27.016Z,6.00
2018-05-27T15:37:55.234Z,6.20
2018-05-27T15:40:22.682Z,6.40
2018-05-27T15:42:50.127Z,6.40
2018-05-27T15:45:17.562Z,5.87
2018-05-27T15:47:45.792Z,5.37
2018-05-27T15:50:13.214Z,5.90
2018-05-27T15:52:40.658Z,5.50
2018-05-27T15:55:08.091Z,6.00
2018-05-27T15:57:35.538Z,5.83
2018-05-27T16:00:02.990Z,5.90
2018-05-27T16:02:30.440Z,5.60
2018-05-27T16:04:57.873Z,5.80
2018-05-27T16:07:25.326Z,6.10
2018-05-27T16:09:52.751Z,6.13
2018-05-27T16:12:20.972Z,5.70
2018-05-27T16:14:48.410Z,6.10
2018-05-27T16:17:15.854Z,6.83
2018-05-27T16:19:43.295Z,7.77
2018-05-27T16:22:11.507Z,7.47
2018-05-27T16:24:38.941Z,7.87
2018-05-27T16:27:06.398Z,7.40
2018-05-27T16:29:33.840Z,8.27
2018-05-27T16:32:02.038Z,6.47
2018-05-27T16:34:29.479Z,7.70
2018-05-27T16:36:56.919Z,6.40
2018-05-27T16:39:24.377Z,6.87
2018-05-27T16:41:51.808Z,8.40
2018-05-27T16:44:19.251Z,6.53
2018-05-27T16:46:46.692Z,7.63
2018-05-27T16:49:14.140Z,7.00
2018-05-27T16:51:41.582Z,6.93
2018-05-27T16:54:09.034Z,7.67
2018-05-27T16:56:37.234Z,7.67
2018-05-27T16:59:04.684Z,7.60
2018-05-27T17:01:32.127Z,6.60
2018-05-27T17:04:00.335Z,7.60
2018-05-27T17:06:27.772Z,7.57
2018-05-27T17:08:55.224Z,7.17
2018-05-27T17:11:23.413Z,7.60
2018-05-27T17:13:50.858Z,7.70
2018-05-27T17:16:18.304Z,7.10
2018-05-27T17:18:45.754Z,7.90
2018-05-27T17:21:13.956Z,6.83
2018-05-27T17:23:41.605Z,6.80
2018-05-27T17:26:09.045Z,6.30
2018-05-27T17:28:37.257Z,6.57
2018-05-27T17:31:04.694Z,6.10
2018-05-27T17:33:32.139Z,5.80
2018-05-27T17:36:00.378Z,6.10
2018-05-27T17:38:27.797Z,5.63
2018-05-27T17:40:55.236Z,5.63
2018-05-27T17:43:22.668Z,5.37
2018-05-27T17:45:50.118Z,6.27
2018-05-27T17:48:17.551Z,5.10
2018-05-27T17:50:44.997Z,6.00
2018-05-27T17:53:12.444Z,5.93
2018-05-27T17:55:39.886Z,4.90
2018-05-27T17:58:07.326Z,6.03
2018-05-27T18:00:35.539Z,6.10
2018-05-27T18:03:02.971Z,5.60
2018-05-27T18:05:30.419Z,5.40
2018-05-27T18:07:58.627Z,6.80
2018-05-27T18:10:26.081Z,5.27
2018-05-27T18:12:53.507Z,6.37
2018-05-27T18:15:21.722Z,5.17
2018-05-27T18:17:49.154Z,6.07
2018-05-27T18:20:16.602Z,5.27
2018-05-27T18:22:44.037Z,5.37
2018-05-27T18:25:12.251Z,5.60
2018-05-27T18:27:39.686Z,5.23
2018-05-27T18:30:07.131Z,5.10
2018-05-27T18:32:35.342Z,5.03
2018-05-27T18:35:02.799Z,5.43
2018-05-27T18:37:30.234Z,5.60
2018-05-27T18:39:57.693Z,4.60
2018-05-27T18:42:25.130Z,5.50
2018-05-27T18:44:53.330Z,5.53
2018-05-27T18:47:20.778Z,6.20
2018-05-27T18:49:48.220Z,6.00
2018-05-27T18:52:16.436Z,5.70
2018-05-27T18:54:43.868Z,5.20
2018-05-27T18:57:11.311Z,5.50
2018-05-27T18:59:39.523Z,6.27
2018-05-27T19:02:06.967Z,5.77
2018-05-27T19:04:34.411Z,5.90
2018-05-27T19:07:02.630Z,4.87
2018-05-27T19:09:30.068Z,5.80
2018-05-27T19:11:57.524Z,7.20
2018-05-27T19:14:24.954Z,7.00
2018-05-27T19:16:53.176Z,6.00
2018-05-27T19:19:20.743Z,6.87
2018-05-27T19:21:48.190Z,6.57
2018-05-27T19:24:15.626Z,6.23
2018-05-27T19:26:43.072Z,6.03
2018-05-27T19:29:10.512Z,7.60
2018-05-27T19:31:38.738Z,6.03
2018-05-27T19:34:06.176Z,6.43
2018-05-27T19:36:33.627Z,6.83
2018-05-27T19:39:01.066Z,6.23
2018-05-27T19:41:29.279Z,6.60
2018-05-27T19:43:56.715Z,6.27
2018-05-27T19:46:24.165Z,6.40
2018-05-27T19:48:51.604Z,7.33
2018-05-27T19:51:19.833Z,7.37
2018-05-27T19:53:47.271Z,7.03
2018-05-27T19:56:14.704Z,7.13
2018-05-27T19:58:42.915Z,6.80
2018-05-27T20:01:10.352Z,6.93
2018-05-27T20:03:37.825Z,7.03
2018-05-27T20:06:05.264Z,6.70
2018-05-27T20:08:32.714Z,7.30
2018-05-27T20:11:00.167Z,6.83
2018-05-27T20:13:28.375Z,6.70
2018-05-27T20:15:55.823Z,7.10
2018-05-27T20:18:23.265Z,7.00
2018-05-27T20:20:50.711Z,8.00
2018-05-27T20:23:18.918Z,6.87
2018-05-27T20:25:46.363Z,7.10
2018-05-27T20:28:13.823Z,7.17
2018-05-27T20:30:41.313Z,7.27
2018-05-27T20:33:08.715Z,7.60
2018-05-27T20:35:36.910Z,7.50
2018-05-27T20:38:04.370Z,8.37
2018-05-27T20:40:31.807Z,7.40
2018-05-27T20:42:59.259Z,7.87
2018-05-27T20:45:27.459Z,7.00
2018-05-27T20:47:54.914Z,7.70
2018-05-27T20:50:22.347Z,7.50
2018-05-27T20:52:50.562Z,7.20
2018-05-27T20:55:18.003Z,7.40
2018-05-27T20:57:45.450Z,7.30
2018-05-27T21:00:12.895Z,6.73
2018-05-27T21:02:41.116Z,8.50
2018-05-27T21:05:08.549Z,7.97
2018-05-27T21:07:36.014Z,7.10
2018-05-27T21:10:03.455Z,7.60
2018-05-27T21:12:30.894Z,9.40
2018-05-27T21:14:59.105Z,7.67
2018-05-27T21:17:26.543Z,7.50
2018-05-27T21:19:53.990Z,8.53
2018-05-27T21:22:21.427Z,7.53
2018-05-27T21:24:49.653Z,7.13
2018-05-27T21:27:17.083Z,8.13
2018-05-27T21:29:44.531Z,8.20
2018-05-27T21:32:12.731Z,7.57
2018-05-27T21:34:40.178Z,7.80
2018-05-27T21:37:07.665Z,8.67
2018-05-27T21:39:35.828Z,8.40
2018-05-27T21:42:03.269Z,8.00
2018-05-27T21:44:30.728Z,7.10
2018-05-27T21:46:58.167Z,6.50
2018-05-27T21:49:26.388Z,7.63
2018-05-27T21:51:53.822Z,6.90
2018-05-27T21:54:21.276Z,7.50
2018-05-27T21:56:48.712Z,7.50
2018-05-27T21:59:16.940Z,8.03
2018-05-27T22:01:44.385Z,6.67
2018-05-27T22:04:11.830Z,7.17
2018-05-27T22:06:39.271Z,7.20
2018-05-27T22:09:06.714Z,6.87
2018-05-27T22:11:34.931Z,7.20
2018-05-27T22:14:02.365Z,6.50
2018-05-27T22:16:29.810Z,7.77
2018-05-27T22:18:57.252Z,7.63
2018-05-27T22:21:25.466Z,7.17
2018-05-27T22:23:52.907Z,7.33
2018-05-27T22:26:20.351Z,7.20
2018-05-27T22:28:48.556Z,6.53
2018-05-27T22:31:16.000Z,6.60
2018-05-27T22:33:43.486Z,6.70
2018-05-27T22:36:11.662Z,7.10
2018-05-27T22:38:39.092Z,8.10
2018-05-27T22:41:06.539Z,8.90
2018-05-27T22:43:33.978Z,6.90
2018-05-27T22:46:02.187Z,6.67
2018-05-27T22:48:29.619Z,6.60
2018-05-27T22:50:57.069Z,5.47
2018-05-27T22:53:25.274Z,5.70
2018-05-27T22:55:52.919Z,4.90
2018-05-27T22:58:20.354Z,4.50
2018-05-27T23:00:48.571Z,4.63
2018-05-27T23:03:16.011Z,4.10
2018-05-27T23:05:43.449Z,3.67
2018-05-27T23:08:11.650Z,3.17
2018-05-27T23:10:39.102Z,2.90
2018-05-27T23:13:06.538Z,3.17
2018-05-27T23:15:34.748Z,3.53
2018-05-27T23:18:02.191Z,3.30
2018-05-27T23:20:29.635Z,2.77
2018-05-27T23:22:57.851Z,3.47
2018-05-27T23:25:25.287Z,3.43
2018-05-27T23:27:52.735Z,3.77
2018-05-27T23:30:20.167Z,3.47
2018-05-27T23:32:48.390Z,2.93
2018-05-27T23:35:15.838Z,3.50
2018-05-27T23:37:43.287Z,3.30
2018-05-27T23:40:10.729Z,3.13
2018-05-27T23:42:38.937Z,3.73
2018-05-27T23:45:06.378Z,3.50
2018-05-27T23:47:33.829Z,2.70
2018-05-27T23:50:01.269Z,2.90
2018-05-27T23:52:29.472Z,3.17
2018-05-27T23:54:56.902Z,3.17
2018-05-27T23:57:25.113Z,3.10
2018-05-27T23:59:53.474Z,3.03
